Time;durP1;ratioP1;P1;durP2;ratioP2;P2;SDS_P1;SDS_P2;PMS_P1;PMS_P2;Temp;Humidity;BMP_temperature;BMP_pressure;BME280_temperature;BME280_humidity;BME280_pressure;Samples;Min_cycle;Max_cycle;Signal;HPM_P1;HPM_P2
2023/10/07 00:00:15;;;;;;;2.80;1.05;;;15.40;99.90;;;;;;4177349;28;20169;-87
2023/10/07 00:02:18;;;;;;;4.03;1.40;;;15.40;99.90;;;;;;4192511;28;20180;-87
2023/10/07 00:04:19;;;;;;;1.30;0.82;;;15.30;99.90;;;;;;4177553;28;20706;-87
2023/10/07 00:06:26;;;;;;;1.98;0.85;;;15.20;99.90;;;;;;4177137;28;20231;-93
2023/10/07 00:08:28;;;;;;;1.77;0.90;;;15.30;99.90;;;;;;4176450;28;20247;-87
2023/10/07 00:10:31;;;;;;;4.13;1.50;;;15.20;99.90;;;;;;4175443;28;20254;-87
2023/10/07 00:12:34;;;;;;;3.95;1.45;;;15.10;99.90;;;;;;4192831;28;20190;-87
2023/10/07 00:14:36;;;;;;;2.78;1.23;;;15.10;99.90;;;;;;4193393;28;20717;-95
2023/10/07 00:16:37;;;;;;;4.70;0.98;;;15.00;99.90;;;;;;4175716;28;20207;-89
2023/10/07 00:18:38;;;;;;;6.03;1.00;;;15.10;99.90;;;;;;4177444;28;20275;-87
2023/10/07 00:20:49;;;;;;;3.45;1.17;;;15.00;99.90;;;;;;4194447;28;20222;-87
2023/10/07 00:22:54;;;;;;;2.17;1.05;;;15.00;99.90;;;;;;4174207;28;20203;-90
2023/10/07 00:24:54;;;;;;;3.13;1.38;;;15.00;99.90;;;;;;4191375;28;20205;-87
2023/10/07 00:26:59;;;;;;;4.10;1.40;;;15.10;99.90;;;;;;4176982;28;20212;-92
2023/10/07 00:29:04;;;;;;;3.50;0.90;;;15.10;99.90;;;;;;4174107;28;20168;-87
2023/10/07 00:31:15;;;;;;;2.70;1.35;;;15.10;99.90;;;;;;4172050;28;20172;-87
2023/10/07 00:33:26;;;;;;;4.05;1.25;;;15.00;99.90;;;;;;4192860;28;20192;-87
2023/10/07 00:35:27;;;;;;;1.48;1.00;;;14.90;99.90;;;;;;4193624;28;20195;-87
2023/10/07 00:37:30;;;;;;;2.70;0.93;;;15.00;99.90;;;;;;4195189;28;20211;-86
2023/10/07 00:39:31;;;;;;;3.28;1.02;;;14.90;99.90;;;;;;4176998;28;20180;-87
2023/10/07 00:41:36;;;;;;;2.88;1.45;;;15.00;99.90;;;;;;4174637;28;20152;-87
2023/10/07 00:43:58;;;;;;;2.95;1.23;;;15.00;99.90;;;;;;4193290;28;20270;-87
2023/10/07 00:46:10;;;;;;;2.60;1.30;;;15.00;99.90;;;;;;4210348;28;20222;-87
2023/10/07 00:48:11;;;;;;;4.82;1.08;;;15.00;99.90;;;;;;4177679;28;20231;-87
2023/10/07 00:50:12;;;;;;;6.93;0.93;;;15.10;99.90;;;;;;4174781;28;20677;-87
2023/10/07 00:52:29;;;;;;;2.42;1.00;;;15.20;99.90;;;;;;4174868;28;20165;-87
2023/10/07 00:54:51;;;;;;;2.20;1.15;;;15.20;99.90;;;;;;4175857;28;20176;-87
2023/10/07 00:57:10;;;;;;;4.47;1.33;;;15.20;99.90;;;;;;4192292;28;20679;-90
2023/10/07 00:59:19;;;;;;;1.75;1.10;;;15.10;99.90;;;;;;4191384;28;20171;-87
2023/10/07 01:01:21;;;;;;;3.83;1.10;;;15.10;99.90;;;;;;4176377;28;20176;-87
2023/10/07 01:05:33;;;;;;;2.97;1.48;;;15.00;99.90;;;;;;4192934;28;20191;-87
2023/10/07 01:12:13;;;;;;;2.65;1.00;;;15.00;99.90;;;;;;4206981;28;20179;-87
2023/10/07 01:14:14;;;;;;;2.70;1.10;;;15.00;99.90;;;;;;4189221;28;20198;-87
2023/10/07 01:16:26;;;;;;;3.22;1.42;;;15.00;99.90;;;;;;4172167;28;20200;-87
2023/10/07 01:18:28;;;;;;;3.05;1.30;;;15.10;99.90;;;;;;4193338;28;20191;-88
2023/10/07 01:20:34;;;;;;;6.95;1.40;;;15.20;99.90;;;;;;4190017;28;20209;-87
2023/10/07 01:22:35;;;;;;;4.72;1.80;;;15.10;99.90;;;;;;4177458;28;20168;-87
2023/10/07 01:26:44;;;;;;;2.53;1.10;;;15.00;99.90;;;;;;4206250;28;20186;-87
2023/10/07 01:28:45;;;;;;;2.40;1.08;;;15.00;99.90;;;;;;4172082;28;20184;-87
2023/10/07 01:31:07;;;;;;;4.22;1.17;;;14.90;99.90;;;;;;4175240;28;20202;-87
2023/10/07 01:33:38;;;;;;;4.85;0.80;;;15.00;99.90;;;;;;4192223;28;20187;-89
2023/10/07 01:35:39;;;;;;;5.70;1.13;;;15.10;99.90;;;;;;4173582;28;20291;-88
2023/10/07 01:37:48;;;;;;;2.83;1.55;;;15.20;99.90;;;;;;4173053;28;20701;-87
2023/10/07 01:40:04;;;;;;;6.95;1.33;;;15.30;99.90;;;;;;4191176;28;20679;-87
2023/10/07 01:42:06;;;;;;;4.75;1.30;;;15.30;99.90;;;;;;4190372;28;20166;-90
2023/10/07 01:44:07;;;;;;;2.55;1.15;;;15.30;99.90;;;;;;4190959;28;20191;-88
2023/10/07 01:46:11;;;;;;;5.47;1.35;;;15.20;99.90;;;;;;4176309;28;20736;-86
2023/10/07 01:48:12;;;;;;;5.78;1.38;;;15.20;99.90;;;;;;4190854;28;20262;-87
2023/10/07 01:50:13;;;;;;;2.38;0.95;;;15.20;99.90;;;;;;4192050;28;20184;-89
2023/10/07 01:52:14;;;;;;;7.22;1.40;;;15.30;99.90;;;;;;4170548;28;20173;-87
2023/10/07 01:54:15;;;;;;;3.55;1.35;;;15.30;99.90;;;;;;4172125;28;20660;-88
2023/10/07 01:56:16;;;;;;;3.92;1.38;;;15.30;99.90;;;;;;4188625;28;20192;-88
2023/10/07 01:58:19;;;;;;;10.10;1.70;;;15.30;99.90;;;;;;4168718;28;20184;-87
2023/10/07 02:00:44;;;;;;;4.90;1.50;;;15.30;99.90;;;;;;4174570;28;20190;-87
2023/10/07 02:02:49;;;;;;;4.82;1.60;;;15.30;99.90;;;;;;4193014;28;20183;-87
2023/10/07 02:04:49;;;;;;;1.83;0.90;;;15.20;99.90;;;;;;4190520;28;20631;-87
2023/10/07 02:06:54;;;;;;;1.38;0.80;;;15.30;99.90;;;;;;4187346;28;20201;-87
2023/10/07 02:09:23;;;;;;;11.55;1.23;;;15.30;99.90;;;;;;4194204;28;20203;-87
2023/10/07 02:11:28;;;;;;;3.20;1.30;;;15.30;99.90;;;;;;4175885;28;20183;-88
2023/10/07 02:13:29;;;;;;;5.03;1.27;;;15.40;99.90;;;;;;4174475;28;20157;-88
2023/10/07 02:15:38;;;;;;;1.63;0.90;;;15.40;99.90;;;;;;4206081;28;20194;-87
2023/10/07 02:17:39;;;;;;;3.00;1.27;;;15.40;99.90;;;;;;4175557;28;20200;-87
2023/10/07 02:19:43;;;;;;;1.88;1.02;;;15.40;99.90;;;;;;4178167;28;20172;-88
2023/10/07 02:21:48;;;;;;;2.75;1.27;;;15.50;99.90;;;;;;4189534;28;20183;-87
2023/10/07 02:23:50;;;;;;;4.45;1.23;;;15.30;99.90;;;;;;4188578;28;20262;-87
2023/10/07 02:25:51;;;;;;;2.17;1.08;;;15.20;99.90;;;;;;4187402;28;20207;-87
2023/10/07 02:27:54;;;;;;;6.07;2.00;;;15.20;99.90;;;;;;4186064;28;20642;-87
2023/10/07 02:29:56;;;;;;;4.60;1.27;;;15.20;99.90;;;;;;4186041;28;20258;-87
2023/10/07 02:32:12;;;;;;;1.70;0.98;;;15.30;99.90;;;;;;4207958;28;20197;-87
2023/10/07 02:34:21;;;;;;;4.32;1.95;;;15.30;99.90;;;;;;4204709;28;20480;-87
2023/10/07 02:36:28;;;;;;;4.70;1.33;;;15.30;99.90;;;;;;4171793;28;20196;-88
2023/10/07 02:38:37;;;;;;;2.10;1.00;;;15.40;99.90;;;;;;4189431;28;20175;-87
2023/10/07 02:40:49;;;;;;;5.80;2.03;;;15.30;99.90;;;;;;4190675;28;20199;-87
2023/10/07 02:42:54;;;;;;;3.17;1.08;;;15.40;99.90;;;;;;4173826;28;20176;-88
2023/10/07 02:47:17;;;;;;;4.97;1.83;;;15.40;99.90;;;;;;4232651;22;20256;-87
2023/10/07 02:49:31;;;;;;;2.33;1.20;;;15.20;99.90;;;;;;4191117;28;20239;-87
2023/10/07 02:51:34;;;;;;;3.47;1.27;;;15.30;99.90;;;;;;4225995;27;20150;-87
2023/10/07 02:53:35;;;;;;;3.05;1.60;;;15.30;99.90;;;;;;4208073;28;20197;-87
2023/10/07 02:55:46;;;;;;;7.53;2.40;;;15.30;99.90;;;;;;4191492;28;20218;-87
2023/10/07 02:57:56;;;;;;;1.98;1.15;;;15.30;99.90;;;;;;4223473;27;20233;-91
2023/10/07 03:00:10;;;;;;;4.18;1.08;;;15.20;99.90;;;;;;4189434;28;20179;-86
2023/10/07 03:04:22;;;;;;;3.83;1.23;;;15.20;99.90;;;;;;4223620;27;20169;-87
2023/10/07 03:06:46;;;;;;;3.08;1.20;;;15.30;99.90;;;;;;4208655;28;20225;-87
2023/10/07 03:11:04;;;;;;;2.63;1.15;;;15.40;99.90;;;;;;4210510;28;20182;-87
2023/10/07 03:13:08;;;;;;;3.95;1.80;;;15.50;99.90;;;;;;4190728;28;20176;-90
2023/10/07 03:15:39;;;;;;;8.38;1.80;;;15.40;99.90;;;;;;4207150;28;20201;-87
2023/10/07 03:17:49;;;;;;;3.22;1.10;;;15.40;99.90;;;;;;4206853;28;20218;-87
2023/10/07 03:20:23;;;;;;;5.90;1.45;;;15.40;99.90;;;;;;4204468;28;20573;-87
2023/10/07 03:22:26;;;;;;;4.28;1.95;;;15.50;99.90;;;;;;4205386;28;20171;-88
2023/10/07 03:24:41;;;;;;;4.05;1.33;;;15.50;99.90;;;;;;4189080;28;20174;-87
2023/10/07 03:26:47;;;;;;;2.67;1.23;;;15.40;99.90;;;;;;4215976;22;20225;-87
2023/10/07 03:28:55;;;;;;;5.38;1.60;;;15.40;99.90;;;;;;4205110;28;20167;-88
2023/10/07 03:30:56;;;;;;;4.60;2.22;;;15.40;99.90;;;;;;4207482;28;20178;-89
2023/10/07 03:32:58;;;;;;;2.22;1.20;;;15.50;99.90;;;;;;4189480;28;20156;-88
2023/10/07 03:35:00;;;;;;;5.72;1.90;;;15.40;99.90;;;;;;4205839;28;20207;-87
2023/10/07 03:41:21;;;;;;;6.80;1.75;;;15.40;99.90;;;;;;4191611;28;20527;-87
2023/10/07 03:43:25;;;;;;;7.03;1.30;;;15.40;99.90;;;;;;4178118;28;20175;-90
2023/10/07 03:45:29;;;;;;;4.82;1.77;;;15.40;99.90;;;;;;4172968;28;20163;-87
2023/10/07 03:47:32;;;;;;;3.45;1.40;;;15.50;99.90;;;;;;4173518;28;20176;-87
2023/10/07 03:49:39;;;;;;;3.00;1.48;;;15.40;99.90;;;;;;4175962;28;20160;-87
2023/10/07 03:51:41;;;;;;;2.25;1.08;;;15.40;99.90;;;;;;4190625;28;20793;-86
2023/10/07 03:53:44;;;;;;;4.68;1.65;;;15.30;99.90;;;;;;4175385;28;20183;-86
2023/10/07 03:55:45;;;;;;;5.22;1.75;;;15.40;99.90;;;;;;4211807;28;20183;-88
2023/10/07 03:57:46;;;;;;;5.60;1.70;;;15.30;99.90;;;;;;4175960;28;20220;-95
2023/10/07 03:59:46;;;;;;;4.40;1.98;;;15.40;99.90;;;;;;4191397;28;20176;-87
2023/10/07 04:01:53;;;;;;;2.00;1.17;;;15.20;99.90;;;;;;4192517;28;20179;-88
2023/10/07 04:04:02;;;;;;;7.30;1.75;;;15.30;99.90;;;;;;4193109;28;20155;-86
2023/10/07 04:06:04;;;;;;;4.18;1.40;;;15.20;99.90;;;;;;4192774;28;20198;-87
2023/10/07 04:08:21;;;;;;;5.07;1.70;;;15.20;99.90;;;;;;4209277;28;20155;-87
2023/10/07 04:10:31;;;;;;;3.72;1.40;;;15.20;99.90;;;;;;4177355;28;20267;-87
2023/10/07 04:12:32;;;;;;;2.92;1.35;;;15.30;99.90;;;;;;4191999;28;20528;-90
2023/10/07 04:14:35;;;;;;;3.60;1.50;;;15.30;99.90;;;;;;4176631;28;20168;-95
2023/10/07 04:16:36;;;;;;;3.25;1.50;;;15.30;99.90;;;;;;4177444;28;20215;-86
2023/10/07 04:18:46;;;;;;;6.18;1.70;;;15.20;99.90;;;;;;4193174;28;20190;-88
2023/10/07 04:23:12;;;;;;;3.05;1.15;;;15.30;99.90;;;;;;4212059;28;20174;-88
2023/10/07 04:25:17;;;;;;;6.57;1.40;;;15.30;99.90;;;;;;4195552;28;20274;-90
2023/10/07 04:27:21;;;;;;;4.65;1.30;;;15.30;99.90;;;;;;4193154;28;20578;-87
2023/10/07 04:29:22;;;;;;;1.70;1.30;;;15.40;99.90;;;;;;4177211;28;20160;-86
2023/10/07 04:31:29;;;;;;;5.78;1.95;;;15.40;99.90;;;;;;4192858;28;20210;-87
2023/10/07 04:33:39;;;;;;;5.85;1.60;;;15.40;99.90;;;;;;4189820;28;20633;-87
2023/10/07 04:35:48;;;;;;;3.00;1.35;;;15.40;99.90;;;;;;4208795;28;20186;-87
2023/10/07 04:38:39;;;;;;;4.35;1.45;;;15.30;99.90;;;;;;4190892;28;20571;-87
2023/10/07 04:45:24;;;;;;;1.65;0.90;;;15.40;99.90;;;;;;4170775;28;20207;-87
2023/10/07 04:49:55;;;;;;;6.43;1.58;;;15.50;99.90;;;;;;4192027;28;20218;-87
2023/10/07 04:51:55;;;;;;;3.63;1.60;;;15.60;99.90;;;;;;4192764;28;20172;-88
2023/10/07 04:53:57;;;;;;;3.08;1.30;;;15.40;99.90;;;;;;4174841;28;20551;-87
2023/10/07 04:56:20;;;;;;;2.67;1.27;;;15.40;99.90;;;;;;4193754;28;20172;-88
2023/10/07 04:58:29;;;;;;;4.70;1.27;;;15.40;99.90;;;;;;4191724;28;20218;-88
2023/10/07 05:02:30;;;;;;;3.30;1.10;;;15.40;99.90;;;;;;4191698;28;20207;-87
2023/10/07 05:04:32;;;;;;;2.53;1.17;;;15.40;99.90;;;;;;4174785;28;20259;-88
2023/10/07 05:06:34;;;;;;;4.10;1.80;;;15.30;99.90;;;;;;4175842;28;20199;-87
2023/10/07 05:08:36;;;;;;;3.45;1.55;;;15.30;99.90;;;;;;4191192;28;20163;-87
2023/10/07 05:10:50;;;;;;;3.60;1.40;;;15.40;99.90;;;;;;4171990;28;20270;-94
2023/10/07 05:12:55;;;;;;;3.13;1.42;;;15.30;99.90;;;;;;4190339;28;20167;-87
2023/10/07 05:15:05;;;;;;;3.63;1.45;;;15.30;99.90;;;;;;4189787;28;20183;-86
2023/10/07 05:17:10;;;;;;;6.53;1.70;;;15.30;99.90;;;;;;4175772;28;20295;-87
2023/10/07 05:19:19;;;;;;;5.57;1.30;;;15.30;99.90;;;;;;4195103;28;20175;-87
2023/10/07 05:21:22;;;;;;;1.85;0.90;;;15.40;99.90;;;;;;4188945;28;20163;-86
2023/10/07 05:23:23;;;;;;;5.93;1.33;;;15.30;99.90;;;;;;4190482;28;20172;-87
2023/10/07 05:25:24;;;;;;;2.38;1.20;;;15.20;99.90;;;;;;4191555;28;20247;-86
2023/10/07 05:27:25;;;;;;;2.28;1.10;;;15.30;99.90;;;;;;4189076;28;20183;-87
2023/10/07 05:29:26;;;;;;;3.85;1.35;;;15.20;99.90;;;;;;4190862;28;20151;-87
2023/10/07 05:31:30;;;;;;;3.83;1.48;;;15.20;99.90;;;;;;4177090;28;20172;-96
2023/10/07 05:33:35;;;;;;;1.52;1.02;;;15.20;99.90;;;;;;4191573;28;20182;-87
2023/10/07 05:35:39;;;;;;;3.70;1.55;;;15.10;99.90;;;;;;4175103;28;20176;-87
2023/10/07 05:37:41;;;;;;;3.10;1.50;;;15.00;99.90;;;;;;4190564;28;20206;-88
2023/10/07 05:39:42;;;;;;;6.50;1.73;;;15.20;99.90;;;;;;4187126;28;20183;-87
2023/10/07 05:41:44;;;;;;;6.70;1.88;;;15.30;99.90;;;;;;4192729;28;20175;-90
2023/10/07 05:43:48;;;;;;;4.25;1.40;;;15.30;99.90;;;;;;4174664;28;20176;-87
2023/10/07 05:45:49;;;;;;;2.35;1.38;;;15.30;99.90;;;;;;4173765;28;20668;-87
2023/10/07 05:47:54;;;;;;;6.90;1.80;;;15.20;99.90;;;;;;4204550;28;20241;-87
2023/10/07 05:49:55;;;;;;;1.42;0.75;;;15.30;99.90;;;;;;4172940;28;20157;-86
2023/10/07 05:51:58;;;;;;;3.10;1.63;;;15.40;99.90;;;;;;4190880;28;20199;-87
2023/10/07 05:53:59;;;;;;;2.45;1.33;;;15.30;99.90;;;;;;4192289;28;20246;-87
2023/10/07 05:56:03;;;;;;;3.05;1.00;;;15.30;99.90;;;;;;4177525;28;20199;-87
2023/10/07 05:58:06;;;;;;;5.03;1.95;;;15.30;99.90;;;;;;4206508;28;20256;-93
2023/10/07 06:00:11;;;;;;;5.07;1.58;;;15.30;99.90;;;;;;4169849;28;20172;-86
2023/10/07 06:02:12;;;;;;;3.72;1.27;;;15.10;99.90;;;;;;4188066;28;20243;-90
2023/10/07 06:04:13;;;;;;;5.18;1.40;;;15.30;99.90;;;;;;4194505;28;20212;-88
2023/10/07 06:06:14;;;;;;;5.45;1.83;;;15.30;99.90;;;;;;4174512;28;20189;-94
2023/10/07 06:08:15;;;;;;;3.90;1.30;;;15.40;99.90;;;;;;4190627;28;20171;-87
2023/10/07 06:10:16;;;;;;;3.50;1.52;;;15.40;99.90;;;;;;4174541;28;20247;-86
2023/10/07 06:12:18;;;;;;;5.07;1.75;;;15.40;99.90;;;;;;4189048;28;20253;-87
2023/10/07 06:14:19;;;;;;;8.75;2.15;;;15.50;99.90;;;;;;4190896;28;20263;-87
2023/10/07 06:16:20;;;;;;;4.65;1.63;;;15.60;99.90;;;;;;4205253;28;20206;-87
2023/10/07 06:18:21;;;;;;;2.75;1.42;;;15.60;99.90;;;;;;4192593;28;20167;-86
2023/10/07 06:20:37;;;;;;;7.10;1.58;;;15.50;99.90;;;;;;4176431;28;20179;-87
2023/10/07 06:22:39;;;;;;;2.85;1.52;;;15.40;99.90;;;;;;4187988;28;20178;-92
2023/10/07 06:24:40;;;;;;;2.53;1.27;;;15.40;99.90;;;;;;4190744;28;20221;-87
2023/10/07 06:26:43;;;;;;;2.70;1.35;;;15.50;99.90;;;;;;4174242;28;20204;-86
2023/10/07 06:28:51;;;;;;;4.07;1.40;;;15.30;99.90;;;;;;4189443;28;20262;-87
2023/10/07 06:31:10;;;;;;;2.33;1.02;;;15.40;99.90;;;;;;4188557;28;20193;-86
2023/10/07 06:33:19;;;;;;;3.72;1.65;;;15.50;99.90;;;;;;4188599;28;20222;-87
2023/10/07 06:35:22;;;;;;;2.05;1.50;;;15.40;99.90;;;;;;4192238;28;20190;-86
2023/10/07 06:37:29;;;;;;;4.63;1.50;;;15.40;99.90;;;;;;4193501;28;20306;-87
2023/10/07 06:39:30;;;;;;;3.40;1.92;;;15.40;99.90;;;;;;4194048;28;20163;-93
2023/10/07 06:41:30;;;;;;;4.78;1.90;;;15.50;99.90;;;;;;4193628;28;20737;-86
2023/10/07 06:43:31;;;;;;;3.83;1.88;;;15.50;99.90;;;;;;4189798;28;20262;-86
2023/10/07 06:45:39;;;;;;;3.38;1.48;;;15.50;99.90;;;;;;4189193;28;20221;-87
2023/10/07 06:47:39;;;;;;;2.13;1.20;;;15.60;99.90;;;;;;4192128;28;20165;-87
2023/10/07 06:49:40;;;;;;;4.03;1.40;;;15.60;99.90;;;;;;4188965;28;20155;-87
2023/10/07 06:51:41;;;;;;;6.00;2.65;;;15.60;99.90;;;;;;4187150;28;20182;-87
2023/10/07 06:53:45;;;;;;;3.63;1.73;;;15.70;99.90;;;;;;4172147;28;20156;-86
2023/10/07 06:56:05;;;;;;;4.00;1.48;;;15.80;99.90;;;;;;4190468;28;20183;-94
2023/10/07 06:58:06;;;;;;;3.60;1.52;;;16.10;99.90;;;;;;4175877;28;20222;-87
2023/10/07 07:00:12;;;;;;;4.07;1.48;;;15.90;99.90;;;;;;4191207;28;20242;-91
2023/10/07 07:02:32;;;;;;;3.03;1.30;;;16.00;99.90;;;;;;4206885;28;20178;-87
2023/10/07 07:04:35;;;;;;;4.90;1.50;;;16.10;99.90;;;;;;4190297;28;20163;-89
2023/10/07 07:06:42;;;;;;;5.22;1.35;;;16.00;99.90;;;;;;4173130;28;20232;-87
2023/10/07 07:08:44;;;;;;;4.53;1.17;;;16.00;99.90;;;;;;4173367;28;20255;-93
2023/10/07 07:10:50;;;;;;;4.05;1.50;;;16.00;99.90;;;;;;4189131;28;20179;-87
2023/10/07 07:13:02;;;;;;;2.30;1.40;;;16.00;99.90;;;;;;4188925;28;20179;-87
2023/10/07 07:15:07;;;;;;;4.78;2.05;;;16.00;99.90;;;;;;4185929;28;20561;-87
2023/10/07 07:17:35;;;;;;;5.10;2.05;;;16.30;99.90;;;;;;4190861;28;20175;-91
2023/10/07 07:19:38;;;;;;;5.40;1.75;;;16.30;99.90;;;;;;4188131;28;20192;-88
2023/10/07 07:21:41;;;;;;;7.53;1.63;;;16.20;99.90;;;;;;4191425;28;20183;-88
2023/10/07 07:23:49;;;;;;;7.45;2.30;;;16.30;99.90;;;;;;4186739;28;20179;-86
2023/10/07 07:26:12;;;;;;;4.43;1.50;;;16.30;99.90;;;;;;4189008;28;20236;-87
2023/10/07 07:28:16;;;;;;;7.03;1.70;;;16.30;99.90;;;;;;4175051;28;20174;-93
2023/10/07 07:30:29;;;;;;;3.92;1.40;;;16.20;99.90;;;;;;4196503;28;20181;-93
2023/10/07 07:32:35;;;;;;;3.78;1.50;;;16.20;99.90;;;;;;4177575;28;20179;-87
2023/10/07 07:34:36;;;;;;;3.15;1.50;;;16.20;99.90;;;;;;4189872;28;20183;-86
2023/10/07 07:36:38;;;;;;;3.92;1.30;;;16.30;99.90;;;;;;4174704;28;20191;-86
2023/10/07 07:38:44;;;;;;;4.72;1.85;;;16.40;99.90;;;;;;4173497;28;20188;-92
2023/10/07 07:40:45;;;;;;;2.88;1.65;;;16.30;99.90;;;;;;4189658;28;20175;-87
2023/10/07 07:42:55;;;;;;;4.38;1.65;;;16.30;99.90;;;;;;4173223;28;20194;-87
2023/10/07 07:44:56;;;;;;;6.65;2.00;;;16.20;99.90;;;;;;4192413;28;20190;-87
2023/10/07 07:46:56;;;;;;;2.58;1.52;;;16.10;99.90;;;;;;4193475;28;20151;-90
2023/10/07 07:49:08;;;;;;;4.95;2.05;;;16.20;99.90;;;;;;4191042;28;20176;-86
2023/10/07 07:51:11;;;;;;;4.03;1.55;;;16.10;99.90;;;;;;4176151;28;20152;-87
2023/10/07 07:53:16;;;;;;;4.20;1.63;;;16.30;99.90;;;;;;4190897;28;20229;-91
2023/10/07 07:55:17;;;;;;;6.07;1.88;;;16.20;99.90;;;;;;4191904;28;20163;-87
2023/10/07 07:57:18;;;;;;;5.03;2.10;;;16.30;99.90;;;;;;4189487;28;20250;-86
2023/10/07 07:59:18;;;;;;;7.68;2.17;;;16.50;99.90;;;;;;4171925;28;20538;-86
2023/10/07 08:01:28;;;;;;;3.95;2.13;;;16.60;99.90;;;;;;4174243;28;20206;-91
2023/10/07 08:03:43;;;;;;;4.60;1.65;;;17.20;99.90;;;;;;4189389;28;20246;-87
2023/10/07 08:05:47;;;;;;;7.32;1.90;;;18.00;99.90;;;;;;4175888;28;20200;-86
2023/10/07 08:07:51;;;;;;;4.10;2.20;;;18.50;99.90;;;;;;4171691;28;20206;-95
2023/10/07 08:09:55;;;;;;;3.70;1.88;;;18.90;99.90;;;;;;4189209;28;20658;-89
2023/10/07 08:11:57;;;;;;;6.57;1.83;;;19.10;99.90;;;;;;4174829;28;20523;-87
2023/10/07 08:14:04;;;;;;;6.03;2.17;;;19.30;99.90;;;;;;4173810;28;20168;-87
2023/10/07 08:16:15;;;;;;;9.75;2.78;;;19.80;99.90;;;;;;4189187;28;20187;-87
2023/10/07 08:18:29;;;;;;;3.92;1.85;;;20.20;99.90;;;;;;4191571;28;20203;-87
2023/10/07 08:20:38;;;;;;;7.78;1.80;;;20.60;99.90;;;;;;4174909;28;20219;-86
2023/10/07 08:22:45;;;;;;;3.30;1.45;;;20.60;99.90;;;;;;4175606;28;20168;-87
2023/10/07 08:24:49;;;;;;;7.45;2.80;;;20.60;99.90;;;;;;4189016;28;20158;-93
2023/10/07 08:26:59;;;;;;;3.33;1.73;;;20.20;99.90;;;;;;4175567;28;20220;-87
2023/10/07 08:29:00;;;;;;;4.32;1.88;;;20.20;99.90;;;;;;4192250;28;20543;-87
2023/10/07 08:31:13;;;;;;;7.72;2.47;;;20.50;99.90;;;;;;4191180;28;20211;-87
2023/10/07 08:33:22;;;;;;;7.03;1.83;;;20.70;99.90;;;;;;4193289;28;20171;-87
2023/10/07 08:35:25;;;;;;;4.32;1.42;;;20.70;99.90;;;;;;4208788;28;20202;-88
2023/10/07 08:37:32;;;;;;;7.32;2.05;;;20.80;99.90;;;;;;4190321;28;20242;-92
2023/10/07 08:39:44;;;;;;;4.32;2.13;;;21.00;99.90;;;;;;4192502;28;20163;-89
2023/10/07 08:41:58;;;;;;;5.07;2.13;;;21.20;99.90;;;;;;4191103;28;20180;-87
2023/10/07 08:44:17;;;;;;;3.33;1.30;;;21.50;99.90;;;;;;4185076;22;20743;-86
2023/10/07 08:46:19;;;;;;;5.97;1.73;;;21.90;99.90;;;;;;4192365;28;20215;-91
2023/10/07 08:48:25;;;;;;;5.20;2.00;;;22.60;99.90;;;;;;4203580;28;20273;-87
2023/10/07 08:50:29;;;;;;;5.30;2.72;;;23.10;99.90;;;;;;4190408;28;20160;-87
2023/10/07 08:52:30;;;;;;;4.80;2.25;;;23.00;99.90;;;;;;4194407;28;20183;-87
2023/10/07 08:54:31;;;;;;;5.35;2.75;;;22.60;99.90;;;;;;4192396;28;20163;-87
2023/10/07 08:56:42;;;;;;;9.43;2.80;;;22.10;99.90;;;;;;4193790;28;20260;-88
2023/10/07 08:58:44;;;;;;;4.93;1.98;;;22.40;99.90;;;;;;4189719;28;20186;-86
2023/10/07 09:00:46;;;;;;;4.00;1.45;;;22.50;99.90;;;;;;4190950;28;20175;-87
2023/10/07 09:02:47;;;;;;;7.50;2.70;;;22.30;99.90;;;;;;4206803;28;20317;-87
2023/10/07 09:04:49;;;;;;;6.25;2.13;;;22.20;99.90;;;;;;4192333;28;20226;-87
2023/10/07 09:07:08;;;;;;;7.75;2.65;;;21.80;99.90;;;;;;4205474;28;20171;-87
2023/10/07 09:09:08;;;;;;;5.28;2.13;;;21.70;99.90;;;;;;4189726;28;20179;-87
2023/10/07 09:11:12;;;;;;;4.40;1.58;;;21.90;99.90;;;;;;4189168;28;20188;-86
2023/10/07 09:13:19;;;;;;;7.38;1.98;;;21.50;99.90;;;;;;4181831;28;20180;-87
2023/10/07 09:15:26;;;;;;;3.92;1.88;;;21.70;99.90;;;;;;4171397;28;20156;-87
2023/10/07 09:17:27;;;;;;;4.32;1.75;;;22.20;99.90;;;;;;4175562;28;20194;-87
2023/10/07 09:19:29;;;;;;;8.88;2.75;;;22.00;99.90;;;;;;4203018;28;20170;-88
2023/10/07 09:21:33;;;;;;;5.18;1.73;;;22.00;99.90;;;;;;4183829;28;20175;-87
2023/10/07 09:23:43;;;;;;;5.35;1.73;;;22.20;99.90;;;;;;4199007;28;20159;-87
2023/10/07 09:25:47;;;;;;;4.68;1.75;;;22.00;99.90;;;;;;4182287;28;20257;-86
2023/10/07 09:27:56;;;;;;;7.47;2.13;;;22.10;99.90;;;;;;4165674;28;20525;-87
2023/10/07 09:30:07;;;;;;;3.92;1.73;;;21.90;99.90;;;;;;4188461;28;20175;-93
2023/10/07 09:32:21;;;;;;;4.18;1.67;;;22.10;99.90;;;;;;4206379;28;20220;-96
2023/10/07 09:36:46;;;;;;;10.25;2.53;;;22.30;99.90;;;;;;4202153;28;20263;-96
2023/10/07 09:38:48;;;;;;;7.63;2.10;;;21.80;99.90;;;;;;4184338;28;20179;-95
2023/10/07 09:42:58;;;;;;;4.30;2.15;;;21.60;99.90;;;;;;4206173;28;20207;-87
2023/10/07 09:47:21;;;;;;;5.38;1.95;;;21.80;99.90;;;;;;4185585;28;20230;-86
2023/10/07 09:49:25;;;;;;;4.25;1.88;;;21.60;99.90;;;;;;4184080;28;20175;-86
2023/10/07 09:51:34;;;;;;;6.00;1.85;;;21.30;99.90;;;;;;4182628;28;20179;-87
2023/10/07 09:54:02;;;;;;;3.33;1.45;;;21.60;99.90;;;;;;4184476;28;20163;-87
2023/10/07 09:56:11;;;;;;;6.35;2.35;;;21.30;99.90;;;;;;4186990;28;20271;-86
2023/10/07 09:58:43;;;;;;;3.85;1.85;;;21.00;99.90;;;;;;4171252;28;20255;-87
2023/10/07 10:01:05;;;;;;;4.68;1.35;;;20.80;99.90;;;;;;4168219;28;20180;-86
2023/10/07 10:03:44;;;;;;;3.78;1.40;;;21.00;99.90;;;;;;4182126;28;20223;-94
2023/10/07 10:06:16;;;;;;;5.30;2.33;;;21.20;99.90;;;;;;4166389;28;20218;-94
2023/10/07 10:08:56;;;;;;;5.28;1.88;;;21.20;99.90;;;;;;4183687;28;20552;-86
2023/10/07 10:11:08;;;;;;;5.85;2.30;;;21.10;99.90;;;;;;4199525;28;20202;-86
2023/10/07 10:13:51;;;;;;;3.70;1.70;;;21.00;99.90;;;;;;4208182;28;20197;-86
2023/10/07 10:15:55;;;;;;;5.95;1.40;;;20.90;99.90;;;;;;4204942;28;20213;-86
2023/10/07 10:17:56;;;;;;;8.15;1.77;;;21.00;99.90;;;;;;4188761;28;20266;-93
2023/10/07 10:20:14;;;;;;;7.03;2.05;;;20.90;99.90;;;;;;4192660;28;20174;-86
2023/10/07 10:22:24;;;;;;;3.70;2.05;;;20.90;99.90;;;;;;4184634;28;20199;-86
2023/10/07 10:24:28;;;;;;;3.70;1.55;;;21.10;99.90;;;;;;4200468;28;20566;-85
2023/10/07 10:26:36;;;;;;;6.88;1.90;;;21.20;99.90;;;;;;4199490;28;20197;-86
2023/10/07 10:28:37;;;;;;;4.85;1.88;;;21.30;99.90;;;;;;4199925;28;20249;-87
2023/10/07 10:30:53;;;;;;;6.05;1.73;;;20.90;99.90;;;;;;4165292;28;20176;-86
2023/10/07 10:32:57;;;;;;;6.30;1.70;;;21.00;99.90;;;;;;4164843;28;20363;-85
2023/10/07 10:35:04;;;;;;;3.63;1.75;;;21.10;99.90;;;;;;4165442;28;20164;-92
2023/10/07 10:37:06;;;;;;;6.85;1.40;;;21.20;99.90;;;;;;4180453;28;20222;-85
2023/10/07 10:39:27;;;;;;;6.53;2.00;;;21.10;99.90;;;;;;4180857;28;20199;-85
2023/10/07 10:41:29;;;;;;;3.45;1.35;;;21.20;99.90;;;;;;4181061;28;20179;-84
2023/10/07 10:43:31;;;;;;;2.65;1.20;;;21.10;99.90;;;;;;4197202;28;20202;-85
2023/10/07 10:45:31;;;;;;;3.95;1.30;;;21.00;99.90;;;;;;4198258;28;20207;-85
2023/10/07 10:47:33;;;;;;;4.95;2.28;;;21.10;99.90;;;;;;4164099;28;20697;-85
2023/10/07 10:49:36;;;;;;;4.68;1.90;;;21.30;99.90;;;;;;4163933;28;20180;-85
2023/10/07 10:51:45;;;;;;;3.75;1.38;;;21.40;99.90;;;;;;4180799;28;20171;-86
2023/10/07 10:53:48;;;;;;;4.05;1.48;;;21.70;99.90;;;;;;4181273;28;20182;-85
2023/10/07 10:55:48;;;;;;;3.40;1.48;;;21.70;99.90;;;;;;4164803;28;20197;-85
2023/10/07 10:57:50;;;;;;;7.45;1.63;;;21.70;99.90;;;;;;4180821;28;20210;-85
2023/10/07 10:59:51;;;;;;;6.03;2.05;;;21.70;99.90;;;;;;4198812;28;20165;-85
2023/10/07 11:01:52;;;;;;;6.03;2.15;;;21.30;99.90;;;;;;4165690;28;20179;-84
2023/10/07 11:03:53;;;;;;;2.33;1.25;;;21.40;99.90;;;;;;4184348;28;20176;-85
2023/10/07 11:05:54;;;;;;;6.55;1.52;;;21.50;99.90;;;;;;4167697;28;20309;-84
2023/10/07 11:07:55;;;;;;;7.72;1.63;;;21.70;99.90;;;;;;4184637;28;20651;-95
2023/10/07 11:09:57;;;;;;;3.53;1.05;;;21.70;99.90;;;;;;4184192;28;20250;-95
2023/10/07 11:11:58;;;;;;;2.83;1.20;;;21.80;99.90;;;;;;4167633;28;20206;-85
2023/10/07 11:14:07;;;;;;;2.65;1.20;;;21.70;99.90;;;;;;4167648;28;20275;-84
2023/10/07 11:16:10;;;;;;;3.67;1.10;;;21.50;99.90;;;;;;4183860;28;20183;-88
2023/10/07 11:18:15;;;;;;;3.40;1.42;;;21.40;99.90;;;;;;4183315;28;20234;-90
2023/10/07 11:20:19;;;;;;;6.32;1.80;;;21.40;99.90;;;;;;4183766;28;20239;-95
2023/10/07 11:22:20;;;;;;;2.78;0.95;;;21.50;99.90;;;;;;4183860;28;20167;-85
2023/10/07 11:24:25;;;;;;;3.17;1.42;;;21.80;99.90;;;;;;4183918;28;20171;-93
2023/10/07 11:26:32;;;;;;;5.22;1.85;;;21.70;99.90;;;;;;4183632;28;20729;-84
2023/10/07 11:28:33;;;;;;;3.67;1.65;;;22.00;99.90;;;;;;4183954;28;20168;-86
2023/10/07 11:30:46;;;;;;;6.75;1.40;;;22.20;99.90;;;;;;4183841;28;20222;-84
2023/10/07 11:32:47;;;;;;;4.47;1.23;;;22.30;99.90;;;;;;4167073;28;20652;-85
2023/10/07 11:34:50;;;;;;;4.60;1.65;;;22.30;99.90;;;;;;4183471;28;20182;-93